CSN304 EGLL-ZGGG
Flight info
| Callsign | CSN304 |
|---|---|
| Flight time | N/A |
| Altitude | 33000 |
| Route | BPK Q295 SOMVA DCT MAVAS DCT ANDIK DCT ALASA DCT DEREX DCT LOGNA DCT TUKMA P989 MEGAS/K0900F330 P989 OBIBA P997 AKUGI T635 SADER T580 ADMUR G117 XV R229 BA R104 ABK A308 TR P982 DARNO/K0906S1005 Y746 NIXAL B208 SQ W45 IKAVO IKAVO9 |
| Aircraft | B77W/H-SDE1E2E3FGHIJ2J3J4J5M1RWXY/LB1D1 |
Departure
| Time | N/A |
|---|---|
| Airport | London Heathrow Airport (EGLL) |
Arrival
| Time | 2026-05-06 01:02 |
|---|---|
| Airport | Guangzhou Baiyun International Airport (ZGGG) |
| Time | Latitude | Longitude | Altitude | Speed | Heading |
|---|---|---|---|---|---|
| 2026-05-05 22:37 | 40.11905 | 112.04826 | 36077 ft | 493 kts | 180° |
| 2026-05-05 22:38 | 40.05194 | 112.06484 | 36080 ft | 484 kts | 180° |
| 2026-05-05 22:38 | 39.98473 | 112.08128 | 36082 ft | 491 kts | 179° |
| 2026-05-05 22:39 | 39.91753 | 112.09772 | 36085 ft | 491 kts | 180° |
| 2026-05-05 22:39 | 39.84993 | 112.11417 | 36084 ft | 491 kts | 179° |
| 2026-05-05 22:40 | 39.78289 | 112.13046 | 36086 ft | 492 kts | 179° |
| 2026-05-05 22:40 | 39.71608 | 112.14669 | 36085 ft | 490 kts | 179° |
| 2026-05-05 22:41 | 39.64871 | 112.16299 | 36088 ft | 494 kts | 179° |
| 2026-05-05 22:41 | 39.58138 | 112.17928 | 36081 ft | 489 kts | 179° |
| 2026-05-05 22:42 | 39.51451 | 112.19540 | 36091 ft | 491 kts | 179° |
| 2026-05-05 22:42 | 39.44679 | 112.21186 | 36083 ft | 494 kts | 179° |
| 2026-05-05 22:43 | 39.37965 | 112.22845 | 36083 ft | 494 kts | 178° |
| 2026-05-05 22:43 | 39.31187 | 112.24511 | 36070 ft | 492 kts | 179° |
| 2026-05-05 22:44 | 39.24441 | 112.26164 | 36059 ft | 496 kts | 178° |
| 2026-05-05 22:44 | 39.17651 | 112.27827 | 36061 ft | 495 kts | 178° |
| 2026-05-05 22:45 | 39.10843 | 112.29490 | 36068 ft | 496 kts | 178° |
| 2026-05-05 22:45 | 39.04055 | 112.31145 | 36073 ft | 496 kts | 178° |
| 2026-05-05 22:46 | 38.97268 | 112.32796 | 36070 ft | 493 kts | 178° |
| 2026-05-05 22:46 | 38.91645 | 112.34161 | 36079 ft | 495 kts | 178° |
| 2026-05-05 22:47 | 38.83726 | 112.36078 | 36077 ft | 499 kts | 178° |
| 2026-05-05 22:47 | 38.76918 | 112.37727 | 36083 ft | 494 kts | 178° |
| 2026-05-05 22:48 | 38.70153 | 112.39359 | 36081 ft | 496 kts | 178° |
| 2026-05-05 22:48 | 38.63313 | 112.41004 | 36067 ft | 500 kts | 178° |
| 2026-05-05 22:49 | 38.56550 | 112.42633 | 36050 ft | 496 kts | 178° |
| 2026-05-05 22:49 | 38.49730 | 112.44267 | 36037 ft | 500 kts | 178° |
| 2026-05-05 22:50 | 38.42946 | 112.45890 | 36032 ft | 496 kts | 178° |
| 2026-05-05 22:50 | 38.36110 | 112.47503 | 36022 ft | 502 kts | 178° |
| 2026-05-05 22:51 | 38.29269 | 112.49119 | 36010 ft | 497 kts | 178° |
| 2026-05-05 22:51 | 38.22443 | 112.50726 | 36012 ft | 500 kts | 178° |
| 2026-05-05 22:52 | 38.15586 | 112.52338 | 36007 ft | 498 kts | 178° |
| 2026-05-05 22:52 | 38.08745 | 112.53943 | 35985 ft | 501 kts | 178° |
| 2026-05-05 22:53 | 38.01865 | 112.55555 | 35963 ft | 500 kts | 177° |
| 2026-05-05 22:53 | 37.95024 | 112.57153 | 35958 ft | 502 kts | 177° |
| 2026-05-05 22:54 | 37.88136 | 112.58762 | 35949 ft | 502 kts | 177° |
| 2026-05-05 22:54 | 37.81250 | 112.60390 | 35934 ft | 504 kts | 177° |
| 2026-05-05 22:55 | 37.74421 | 112.62017 | 35929 ft | 502 kts | 177° |
| 2026-05-05 22:55 | 37.67594 | 112.64216 | 35937 ft | 507 kts | 172° |
| 2026-05-05 22:56 | 37.60719 | 112.66574 | 35930 ft | 504 kts | 173° |
| 2026-05-05 22:56 | 37.53924 | 112.68882 | 35933 ft | 506 kts | 173° |
| 2026-05-05 22:57 | 37.48298 | 112.70777 | 35952 ft | 505 kts | 173° |
| 2026-05-05 22:57 | 37.40346 | 112.73441 | 35977 ft | 505 kts | 173° |
| 2026-05-05 22:58 | 37.33578 | 112.75699 | 36002 ft | 505 kts | 173° |
| 2026-05-05 22:58 | 37.26793 | 112.77955 | 36022 ft | 503 kts | 173° |
| 2026-05-05 22:59 | 37.20061 | 112.80185 | 36027 ft | 507 kts | 173° |
| 2026-05-05 22:59 | 37.13249 | 112.82441 | 36012 ft | 504 kts | 173° |
| 2026-05-05 23:00 | 37.03084 | 112.85798 | 35994 ft | 503 kts | 173° |
| 2026-05-05 23:00 | 36.96312 | 112.88035 | 35990 ft | 505 kts | 173° |
| 2026-05-05 23:01 | 36.89541 | 112.90267 | 35982 ft | 504 kts | 172° |
| 2026-05-05 23:01 | 36.83863 | 112.92137 | 35977 ft | 503 kts | 172° |
| 2026-05-05 23:02 | 36.75972 | 112.94729 | 35970 ft | 506 kts | 172° |
| 2026-05-05 23:02 | 36.69134 | 112.96971 | 35971 ft | 502 kts | 173° |
| 2026-05-05 23:03 | 36.62336 | 112.99194 | 35971 ft | 508 kts | 172° |
| 2026-05-05 23:03 | 36.55528 | 113.01420 | 35962 ft | 505 kts | 172° |
| 2026-05-05 23:04 | 36.48709 | 113.03642 | 35965 ft | 508 kts | 172° |
| 2026-05-05 23:04 | 36.41928 | 113.05852 | 35962 ft | 503 kts | 172° |
| 2026-05-05 23:05 | 36.35099 | 113.08069 | 35962 ft | 506 kts | 172° |
| 2026-05-05 23:05 | 36.28267 | 113.09903 | 35965 ft | 499 kts | 182° |
| 2026-05-05 23:06 | 36.24825 | 113.10000 | 35963 ft | 486 kts | 191° |
| 2026-05-05 23:06 | 36.21508 | 113.09465 | 35966 ft | 477 kts | 199° |
| 2026-05-05 23:06 | 36.15278 | 113.06857 | 35980 ft | 472 kts | 209° |
| 2026-05-05 23:07 | 36.09253 | 113.03834 | 35985 ft | 467 kts | 209° |
| 2026-05-05 23:07 | 36.03200 | 113.00746 | 35992 ft | 466 kts | 210° |
| 2026-05-05 23:08 | 35.97197 | 112.97658 | 35989 ft | 470 kts | 210° |
| 2026-05-05 23:08 | 35.91192 | 112.94561 | 35988 ft | 466 kts | 210° |
| 2026-05-05 23:09 | 35.85167 | 112.91448 | 35977 ft | 467 kts | 210° |
| 2026-05-05 23:09 | 35.79165 | 112.88348 | 35980 ft | 470 kts | 210° |
| 2026-05-05 23:10 | 35.73164 | 112.85231 | 35968 ft | 466 kts | 210° |
| 2026-05-05 23:10 | 35.67182 | 112.82117 | 35971 ft | 467 kts | 210° |
| 2026-05-05 23:11 | 35.61152 | 112.78982 | 35967 ft | 469 kts | 210° |
| 2026-05-05 23:11 | 35.55103 | 112.75837 | 35974 ft | 469 kts | 210° |
| 2026-05-05 23:12 | 35.49096 | 112.72703 | 35973 ft | 470 kts | 210° |
| 2026-05-05 23:12 | 35.43084 | 112.69573 | 35968 ft | 469 kts | 210° |
| 2026-05-05 23:13 | 35.37080 | 112.66452 | 35967 ft | 470 kts | 210° |
| 2026-05-05 23:13 | 35.31065 | 112.63332 | 35965 ft | 469 kts | 210° |
| 2026-05-05 23:14 | 35.25026 | 112.60204 | 35962 ft | 468 kts | 210° |
| 2026-05-05 23:14 | 35.19002 | 112.57091 | 35944 ft | 468 kts | 210° |
| 2026-05-05 23:15 | 35.12966 | 112.54001 | 35919 ft | 471 kts | 210° |
| 2026-05-05 23:15 | 35.06706 | 112.51402 | 35906 ft | 475 kts | 203° |
| 2026-05-05 23:16 | 35.00396 | 112.49089 | 35886 ft | 476 kts | 204° |
| 2026-05-05 23:16 | 34.94024 | 112.46756 | 35881 ft | 476 kts | 204° |
| 2026-05-05 23:17 | 34.87644 | 112.44421 | 35874 ft | 477 kts | 203° |
| 2026-05-05 23:17 | 34.81290 | 112.42100 | 35877 ft | 477 kts | 204° |
| 2026-05-05 23:18 | 34.74794 | 112.40067 | 35871 ft | 485 kts | 194° |
| 2026-05-05 23:18 | 34.67943 | 112.40041 | 35884 ft | 496 kts | 182° |
| 2026-05-05 23:19 | 34.61050 | 112.40627 | 35890 ft | 499 kts | 182° |
| 2026-05-05 23:19 | 34.54149 | 112.41221 | 35892 ft | 499 kts | 182° |
| 2026-05-05 23:20 | 34.47206 | 112.41816 | 35898 ft | 499 kts | 182° |
| 2026-05-05 23:20 | 34.40251 | 112.42411 | 35903 ft | 500 kts | 182° |
| 2026-05-05 23:21 | 34.33329 | 112.43003 | 35897 ft | 499 kts | 182° |
| 2026-05-05 23:21 | 34.26396 | 112.43595 | 35903 ft | 497 kts | 182° |
| 2026-05-05 23:22 | 34.19494 | 112.44181 | 35910 ft | 502 kts | 182° |
| 2026-05-05 23:22 | 34.12529 | 112.44774 | 35910 ft | 502 kts | 182° |
| 2026-05-05 23:23 | 34.05569 | 112.45365 | 35922 ft | 501 kts | 182° |
| 2026-05-05 23:23 | 33.98641 | 112.45953 | 35920 ft | 498 kts | 182° |
| 2026-05-05 23:24 | 33.91639 | 112.46544 | 35923 ft | 503 kts | 182° |
| 2026-05-05 23:24 | 33.84713 | 112.47130 | 35913 ft | 500 kts | 181° |
| 2026-05-05 23:25 | 33.77715 | 112.47720 | 35907 ft | 500 kts | 181° |
| 2026-05-05 23:25 | 33.70764 | 112.48305 | 35905 ft | 501 kts | 181° |
| 2026-05-05 23:26 | 33.63852 | 112.48886 | 35905 ft | 501 kts | 181° |
| 2026-05-05 23:26 | 33.56932 | 112.49477 | 35910 ft | 499 kts | 181° |
| 2026-05-05 23:27 | 33.49994 | 112.50068 | 35909 ft | 499 kts | 181° |
| 2026-05-05 23:27 | 33.43030 | 112.50660 | 35907 ft | 501 kts | 181° |
| 2026-05-05 23:28 | 33.36060 | 112.51253 | 35910 ft | 501 kts | 181° |
| 2026-05-05 23:28 | 33.29062 | 112.51846 | 35913 ft | 500 kts | 181° |
| 2026-05-05 23:29 | 33.22129 | 112.52433 | 35914 ft | 500 kts | 181° |
| 2026-05-05 23:29 | 33.15174 | 112.53020 | 35914 ft | 501 kts | 181° |
| 2026-05-05 23:30 | 33.09419 | 112.53507 | 35910 ft | 499 kts | 181° |
| 2026-05-05 23:30 | 33.01323 | 112.54188 | 35904 ft | 498 kts | 181° |
| 2026-05-05 23:31 | 32.94400 | 112.54713 | 35897 ft | 497 kts | 185° |
| 2026-05-05 23:31 | 32.87562 | 112.53531 | 35904 ft | 485 kts | 201° |
| 2026-05-05 23:32 | 32.81114 | 112.51339 | 35898 ft | 484 kts | 201° |
| 2026-05-05 23:32 | 32.74611 | 112.49221 | 35902 ft | 487 kts | 200° |
| 2026-05-05 23:33 | 32.68068 | 112.47102 | 35895 ft | 484 kts | 201° |
| 2026-05-05 23:33 | 32.61598 | 112.45002 | 35903 ft | 485 kts | 201° |
| 2026-05-05 23:34 | 32.55079 | 112.42888 | 35899 ft | 484 kts | 200° |
| 2026-05-05 23:34 | 32.48600 | 112.40787 | 35897 ft | 484 kts | 200° |
| 2026-05-05 23:35 | 32.42039 | 112.38663 | 35894 ft | 484 kts | 200° |
| 2026-05-05 23:35 | 32.35567 | 112.36571 | 35892 ft | 484 kts | 200° |
| 2026-05-05 23:36 | 32.29063 | 112.34470 | 35908 ft | 484 kts | 200° |
| 2026-05-05 23:36 | 32.22550 | 112.32370 | 35905 ft | 483 kts | 200° |
| 2026-05-05 23:37 | 32.16083 | 112.30288 | 35904 ft | 483 kts | 199° |
| 2026-05-05 23:37 | 32.09585 | 112.28198 | 35907 ft | 483 kts | 199° |
| 2026-05-05 23:38 | 32.03019 | 112.26609 | 35905 ft | 487 kts | 194° |
| 2026-05-05 23:38 | 31.96316 | 112.25254 | 35908 ft | 487 kts | 194° |
| 2026-05-05 23:39 | 31.89661 | 112.23909 | 35912 ft | 486 kts | 194° |
| 2026-05-05 23:39 | 31.82985 | 112.22559 | 35916 ft | 485 kts | 194° |
| 2026-05-05 23:40 | 31.76354 | 112.21219 | 35920 ft | 485 kts | 194° |
| 2026-05-05 23:40 | 31.69676 | 112.19870 | 35918 ft | 485 kts | 194° |
| 2026-05-05 23:41 | 31.63009 | 112.18526 | 35922 ft | 486 kts | 194° |
| 2026-05-05 23:41 | 31.56316 | 112.17178 | 35927 ft | 485 kts | 194° |
| 2026-05-05 23:42 | 31.49616 | 112.15830 | 35924 ft | 486 kts | 194° |
| 2026-05-05 23:42 | 31.42980 | 112.14497 | 35923 ft | 486 kts | 194° |
| 2026-05-05 23:43 | 31.36336 | 112.13042 | 35920 ft | 484 kts | 197° |
| 2026-05-05 23:43 | 31.29759 | 112.11401 | 35920 ft | 484 kts | 197° |
| 2026-05-05 23:44 | 31.23193 | 112.09776 | 35921 ft | 483 kts | 196° |
| 2026-05-05 23:44 | 31.16606 | 112.08155 | 35920 ft | 481 kts | 197° |
| 2026-05-05 23:45 | 31.10044 | 112.06547 | 35920 ft | 483 kts | 197° |
| 2026-05-05 23:45 | 31.03450 | 112.04936 | 35919 ft | 484 kts | 197° |
| 2026-05-05 23:46 | 30.96870 | 112.03332 | 35916 ft | 481 kts | 197° |
| 2026-05-05 23:46 | 30.90303 | 112.01733 | 35920 ft | 482 kts | 197° |
| 2026-05-05 23:47 | 30.83708 | 112.00131 | 35911 ft | 483 kts | 197° |
| 2026-05-05 23:47 | 30.77153 | 111.98541 | 35914 ft | 480 kts | 197° |
| 2026-05-05 23:48 | 30.70593 | 111.96951 | 35912 ft | 482 kts | 197° |
| 2026-05-05 23:48 | 30.64040 | 111.95370 | 35919 ft | 482 kts | 197° |
| 2026-05-05 23:49 | 30.57438 | 111.93784 | 35924 ft | 482 kts | 197° |
| 2026-05-05 23:49 | 30.50875 | 111.92209 | 35930 ft | 484 kts | 197° |
| 2026-05-05 23:50 | 30.44296 | 111.90634 | 35931 ft | 481 kts | 197° |
| 2026-05-05 23:50 | 30.37712 | 111.89058 | 35930 ft | 481 kts | 197° |
| 2026-05-05 23:51 | 30.31125 | 111.87483 | 35931 ft | 483 kts | 197° |
| 2026-05-05 23:51 | 30.24517 | 111.85907 | 35933 ft | 485 kts | 197° |
| 2026-05-05 23:52 | 30.17910 | 111.84333 | 35936 ft | 482 kts | 197° |
| 2026-05-05 23:52 | 30.11338 | 111.82768 | 35937 ft | 484 kts | 197° |
| 2026-05-05 23:53 | 30.04702 | 111.81192 | 35934 ft | 482 kts | 197° |
| 2026-05-05 23:53 | 29.98158 | 111.79639 | 35930 ft | 482 kts | 197° |
| 2026-05-05 23:54 | 29.91556 | 111.78074 | 35931 ft | 484 kts | 197° |
| 2026-05-05 23:54 | 29.84962 | 111.76513 | 35931 ft | 483 kts | 197° |
| 2026-05-05 23:55 | 29.78325 | 111.74944 | 35931 ft | 485 kts | 197° |
| 2026-05-05 23:55 | 29.71708 | 111.73383 | 35932 ft | 485 kts | 197° |
| 2026-05-05 23:56 | 29.65104 | 111.71825 | 35931 ft | 484 kts | 197° |
| 2026-05-05 23:56 | 29.58491 | 111.70269 | 35930 ft | 484 kts | 197° |
| 2026-05-05 23:57 | 29.51878 | 111.68713 | 35927 ft | 486 kts | 197° |
| 2026-05-05 23:57 | 29.45274 | 111.67163 | 35935 ft | 486 kts | 197° |
| 2026-05-05 23:58 | 29.38615 | 111.65601 | 35932 ft | 487 kts | 197° |
| 2026-05-05 23:58 | 29.31866 | 111.64642 | 35938 ft | 493 kts | 187° |
| 2026-05-05 23:59 | 29.24981 | 111.64275 | 35933 ft | 493 kts | 187° |
| 2026-05-05 23:59 | 29.18113 | 111.63917 | 35930 ft | 492 kts | 187° |
| 2026-05-06 00:00 | 29.11264 | 111.63556 | 35946 ft | 495 kts | 187° |
| 2026-05-06 00:00 | 29.04389 | 111.63195 | 35956 ft | 494 kts | 187° |
| 2026-05-06 00:01 | 28.97485 | 111.62831 | 35956 ft | 496 kts | 187° |
| 2026-05-06 00:01 | 28.90620 | 111.62471 | 35953 ft | 494 kts | 187° |
| 2026-05-06 00:02 | 28.83696 | 111.62101 | 35949 ft | 494 kts | 188° |
| 2026-05-06 00:02 | 28.76909 | 111.61374 | 35960 ft | 492 kts | 191° |
| 2026-05-06 00:03 | 28.70054 | 111.60600 | 35968 ft | 492 kts | 191° |
| 2026-05-06 00:03 | 28.63209 | 111.59842 | 35974 ft | 492 kts | 190° |
| 2026-05-06 00:04 | 28.56399 | 111.59096 | 35978 ft | 492 kts | 191° |
| 2026-05-06 00:04 | 28.49567 | 111.58353 | 35982 ft | 490 kts | 190° |
| 2026-05-06 00:05 | 28.39343 | 111.57252 | 35999 ft | 491 kts | 191° |
| 2026-05-06 00:06 | 28.32523 | 111.56528 | 36012 ft | 492 kts | 191° |
| 2026-05-06 00:06 | 28.25679 | 111.55803 | 36014 ft | 493 kts | 190° |
| 2026-05-06 00:07 | 28.18840 | 111.55080 | 36016 ft | 491 kts | 190° |
| 2026-05-06 00:07 | 28.12041 | 111.54362 | 36021 ft | 493 kts | 190° |
| 2026-05-06 00:08 | 28.05158 | 111.53635 | 36024 ft | 492 kts | 190° |
| 2026-05-06 00:08 | 27.98316 | 111.52914 | 36026 ft | 495 kts | 190° |
| 2026-05-06 00:09 | 27.91415 | 111.52190 | 36022 ft | 494 kts | 190° |
| 2026-05-06 00:09 | 27.84565 | 111.51472 | 36017 ft | 495 kts | 190° |
| 2026-05-06 00:10 | 27.77714 | 111.50756 | 36020 ft | 494 kts | 190° |
| 2026-05-06 00:10 | 27.70849 | 111.50038 | 36021 ft | 493 kts | 190° |
| 2026-05-06 00:11 | 27.63985 | 111.49322 | 36020 ft | 493 kts | 190° |
| 2026-05-06 00:11 | 27.57160 | 111.48610 | 36019 ft | 494 kts | 190° |
| 2026-05-06 00:12 | 27.50219 | 111.47887 | 36021 ft | 495 kts | 190° |
| 2026-05-06 00:12 | 27.43403 | 111.47178 | 36022 ft | 494 kts | 190° |
| 2026-05-06 00:13 | 27.36498 | 111.46461 | 36019 ft | 495 kts | 190° |
| 2026-05-06 00:13 | 27.29627 | 111.45747 | 36015 ft | 495 kts | 190° |
| 2026-05-06 00:14 | 27.22749 | 111.45035 | 36013 ft | 495 kts | 191° |
| 2026-05-06 00:14 | 27.15893 | 111.44325 | 36020 ft | 496 kts | 191° |
| 2026-05-06 00:15 | 27.09016 | 111.43614 | 36014 ft | 495 kts | 191° |
| 2026-05-06 00:15 | 27.02121 | 111.43021 | 36010 ft | 500 kts | 184° |
| 2026-05-06 00:16 | 26.95201 | 111.44226 | 36009 ft | 511 kts | 166° |
| 2026-05-06 00:16 | 26.88690 | 111.47765 | 36007 ft | 520 kts | 148° |
| 2026-05-06 00:17 | 26.83381 | 111.53291 | 36010 ft | 528 kts | 130° |
| 2026-05-06 00:17 | 26.78975 | 111.59875 | 36016 ft | 528 kts | 128° |
| 2026-05-06 00:18 | 26.74546 | 111.66466 | 36017 ft | 527 kts | 129° |
| 2026-05-06 00:18 | 26.70153 | 111.72909 | 36017 ft | 527 kts | 129° |
| 2026-05-06 00:19 | 26.65966 | 111.78994 | 35932 ft | 528 kts | 129° |
| 2026-05-06 00:19 | 26.63804 | 111.82123 | 35678 ft | 528 kts | 129° |
| 2026-05-06 00:19 | 26.61550 | 111.85377 | 35404 ft | 526 kts | 129° |
| 2026-05-06 00:19 | 26.59319 | 111.88592 | 35132 ft | 525 kts | 129° |
| 2026-05-06 00:20 | 26.57101 | 111.91783 | 34861 ft | 524 kts | 129° |
| 2026-05-06 00:20 | 26.54838 | 111.95035 | 34588 ft | 525 kts | 129° |
| 2026-05-06 00:20 | 26.52598 | 111.98249 | 34315 ft | 524 kts | 129° |
| 2026-05-06 00:20 | 26.50375 | 112.01436 | 34046 ft | 523 kts | 129° |
| 2026-05-06 00:21 | 26.48146 | 112.04627 | 33776 ft | 524 kts | 129° |
| 2026-05-06 00:21 | 26.45901 | 112.07839 | 33505 ft | 526 kts | 129° |
| 2026-05-06 00:21 | 26.43648 | 112.11060 | 33236 ft | 526 kts | 129° |
| 2026-05-06 00:21 | 26.41388 | 112.14287 | 32964 ft | 526 kts | 129° |
| 2026-05-06 00:22 | 26.39159 | 112.17468 | 32703 ft | 526 kts | 129° |
| 2026-05-06 00:22 | 26.36875 | 112.20725 | 32430 ft | 527 kts | 129° |
| 2026-05-06 00:22 | 26.34646 | 112.23901 | 32169 ft | 528 kts | 129° |
| 2026-05-06 00:22 | 26.32370 | 112.27103 | 31900 ft | 527 kts | 132° |
| 2026-05-06 00:23 | 26.29810 | 112.30009 | 31639 ft | 525 kts | 141° |
| 2026-05-06 00:23 | 26.26902 | 112.32473 | 31369 ft | 522 kts | 149° |
| 2026-05-06 00:23 | 26.23744 | 112.34425 | 31105 ft | 517 kts | 158° |
| 2026-05-06 00:23 | 26.20392 | 112.35901 | 30844 ft | 512 kts | 163° |
| 2026-05-06 00:24 | 26.17077 | 112.37205 | 30583 ft | 509 kts | 163° |
| 2026-05-06 00:24 | 26.13706 | 112.38521 | 30322 ft | 507 kts | 163° |
| 2026-05-06 00:24 | 26.10411 | 112.39806 | 30063 ft | 504 kts | 163° |
| 2026-05-06 00:24 | 26.07106 | 112.41093 | 29810 ft | 502 kts | 163° |
| 2026-05-06 00:25 | 26.03813 | 112.42376 | 29555 ft | 500 kts | 163° |
| 2026-05-06 00:25 | 26.00517 | 112.43658 | 29294 ft | 499 kts | 163° |
| 2026-05-06 00:25 | 25.97250 | 112.44930 | 29072 ft | 497 kts | 163° |
| 2026-05-06 00:25 | 25.93996 | 112.46194 | 28870 ft | 496 kts | 163° |
| 2026-05-06 00:26 | 25.90746 | 112.47456 | 28675 ft | 493 kts | 162° |
| 2026-05-06 00:26 | 25.87503 | 112.48716 | 28478 ft | 492 kts | 163° |
| 2026-05-06 00:26 | 25.84259 | 112.49975 | 28286 ft | 489 kts | 162° |
| 2026-05-06 00:26 | 25.81085 | 112.51205 | 28091 ft | 487 kts | 162° |
| 2026-05-06 00:27 | 25.77886 | 112.52445 | 27898 ft | 485 kts | 162° |
| 2026-05-06 00:27 | 25.74714 | 112.53674 | 27707 ft | 483 kts | 162° |
| 2026-05-06 00:27 | 25.71541 | 112.54903 | 27511 ft | 481 kts | 162° |
| 2026-05-06 00:27 | 25.68353 | 112.56136 | 27315 ft | 479 kts | 162° |
| 2026-05-06 00:28 | 25.65248 | 112.57337 | 27127 ft | 477 kts | 162° |
| 2026-05-06 00:28 | 25.62113 | 112.58549 | 26933 ft | 475 kts | 162° |
| 2026-05-06 00:28 | 25.58961 | 112.59766 | 26735 ft | 474 kts | 162° |
| 2026-05-06 00:28 | 25.55846 | 112.60968 | 26515 ft | 472 kts | 162° |
| 2026-05-06 00:29 | 25.52772 | 112.62154 | 26266 ft | 470 kts | 162° |
| 2026-05-06 00:29 | 25.49691 | 112.63342 | 26001 ft | 468 kts | 162° |
| 2026-05-06 00:29 | 25.46627 | 112.64523 | 25735 ft | 465 kts | 162° |
| 2026-05-06 00:29 | 25.43549 | 112.65709 | 25462 ft | 463 kts | 162° |
| 2026-05-06 00:30 | 25.40514 | 112.66878 | 25190 ft | 461 kts | 162° |
| 2026-05-06 00:30 | 25.37480 | 112.68045 | 24917 ft | 458 kts | 162° |
| 2026-05-06 00:30 | 25.34502 | 112.69191 | 24648 ft | 456 kts | 162° |
| 2026-05-06 00:30 | 25.31524 | 112.70335 | 24377 ft | 453 kts | 162° |
| 2026-05-06 00:31 | 25.28548 | 112.71478 | 24120 ft | 451 kts | 162° |
| 2026-05-06 00:31 | 25.25580 | 112.72618 | 23873 ft | 449 kts | 162° |
| 2026-05-06 00:31 | 25.22608 | 112.73759 | 23628 ft | 447 kts | 162° |
| 2026-05-06 00:31 | 25.19705 | 112.74872 | 23388 ft | 445 kts | 162° |
| 2026-05-06 00:32 | 25.16759 | 112.76002 | 23145 ft | 443 kts | 162° |
| 2026-05-06 00:32 | 25.13887 | 112.77102 | 22911 ft | 441 kts | 162° |
| 2026-05-06 00:32 | 25.10981 | 112.78214 | 22669 ft | 440 kts | 162° |
| 2026-05-06 00:32 | 25.08102 | 112.79317 | 22432 ft | 438 kts | 162° |
| 2026-05-06 00:33 | 25.05215 | 112.80421 | 22193 ft | 436 kts | 162° |
| 2026-05-06 00:33 | 25.02335 | 112.81522 | 21958 ft | 435 kts | 162° |
| 2026-05-06 00:34 | 24.91113 | 112.85809 | 21022 ft | 430 kts | 162° |
| 2026-05-06 00:34 | 24.88277 | 112.86890 | 20783 ft | 429 kts | 162° |
| 2026-05-06 00:34 | 24.85425 | 112.87977 | 20543 ft | 428 kts | 162° |
| 2026-05-06 00:35 | 24.82625 | 112.89044 | 20306 ft | 426 kts | 162° |
| 2026-05-06 00:35 | 24.79831 | 112.90108 | 20070 ft | 424 kts | 162° |
| 2026-05-06 00:35 | 24.77053 | 112.91166 | 19835 ft | 423 kts | 162° |
| 2026-05-06 00:35 | 24.74260 | 112.92229 | 19598 ft | 421 kts | 162° |
| 2026-05-06 00:36 | 24.71509 | 112.93276 | 19359 ft | 421 kts | 162° |
| 2026-05-06 00:36 | 24.68719 | 112.94336 | 19116 ft | 420 kts | 162° |
| 2026-05-06 00:36 | 24.65982 | 112.95376 | 18880 ft | 419 kts | 162° |
| 2026-05-06 00:36 | 24.63219 | 112.96425 | 18645 ft | 417 kts | 162° |
| 2026-05-06 00:37 | 24.60475 | 112.97466 | 18409 ft | 416 kts | 162° |
| 2026-05-06 00:37 | 24.57740 | 112.98504 | 18179 ft | 415 kts | 162° |
| 2026-05-06 00:37 | 24.55009 | 112.99539 | 17947 ft | 414 kts | 162° |
| 2026-05-06 00:37 | 24.52277 | 113.00575 | 17707 ft | 413 kts | 162° |
| 2026-05-06 00:38 | 24.49573 | 113.01600 | 17481 ft | 411 kts | 162° |
| 2026-05-06 00:38 | 24.46870 | 113.02619 | 17240 ft | 409 kts | 164° |
| 2026-05-06 00:38 | 24.44133 | 113.03442 | 17026 ft | 407 kts | 168° |
| 2026-05-06 00:38 | 24.41377 | 113.04192 | 16803 ft | 405 kts | 168° |
| 2026-05-06 00:39 | 24.38648 | 113.04932 | 16567 ft | 404 kts | 168° |
| 2026-05-06 00:39 | 24.35921 | 113.05672 | 16331 ft | 402 kts | 168° |
| 2026-05-06 00:39 | 24.33212 | 113.06406 | 16101 ft | 401 kts | 168° |
| 2026-05-06 00:39 | 24.30500 | 113.07141 | 15862 ft | 400 kts | 168° |
| 2026-05-06 00:40 | 24.27798 | 113.07873 | 15612 ft | 399 kts | 168° |
| 2026-05-06 00:40 | 24.25097 | 113.08604 | 15374 ft | 397 kts | 168° |
| 2026-05-06 00:40 | 24.22424 | 113.09466 | 15162 ft | 398 kts | 160° |
| 2026-05-06 00:40 | 24.19949 | 113.10832 | 14936 ft | 400 kts | 149° |
| 2026-05-06 00:41 | 24.17653 | 113.12575 | 14710 ft | 399 kts | 146° |
| 2026-05-06 00:41 | 24.15406 | 113.14344 | 14494 ft | 398 kts | 146° |
| 2026-05-06 00:41 | 24.13170 | 113.16105 | 14252 ft | 396 kts | 146° |
| 2026-05-06 00:41 | 24.10945 | 113.17857 | 14014 ft | 394 kts | 146° |
| 2026-05-06 00:42 | 24.08709 | 113.19616 | 13787 ft | 393 kts | 146° |
| 2026-05-06 00:42 | 24.06493 | 113.21360 | 13555 ft | 392 kts | 146° |
| 2026-05-06 00:42 | 24.04284 | 113.23097 | 13343 ft | 390 kts | 146° |
| 2026-05-06 00:42 | 24.02081 | 113.24828 | 13097 ft | 389 kts | 146° |
| 2026-05-06 00:43 | 23.99896 | 113.26545 | 12869 ft | 387 kts | 146° |
| 2026-05-06 00:43 | 23.97717 | 113.28256 | 12630 ft | 386 kts | 146° |
| 2026-05-06 00:43 | 23.95534 | 113.29969 | 12402 ft | 384 kts | 146° |
| 2026-05-06 00:43 | 23.93358 | 113.31677 | 12174 ft | 383 kts | 146° |
| 2026-05-06 00:44 | 23.91180 | 113.33385 | 11938 ft | 382 kts | 146° |
| 2026-05-06 00:44 | 23.89078 | 113.35033 | 11707 ft | 380 kts | 146° |
| 2026-05-06 00:44 | 23.86864 | 113.36768 | 11470 ft | 379 kts | 146° |
| 2026-05-06 00:44 | 23.84717 | 113.38449 | 11233 ft | 378 kts | 146° |
| 2026-05-06 00:45 | 23.82585 | 113.40118 | 10997 ft | 376 kts | 146° |
| 2026-05-06 00:45 | 23.80476 | 113.41769 | 10818 ft | 368 kts | 146° |
| 2026-05-06 00:45 | 23.78461 | 113.43347 | 10794 ft | 351 kts | 146° |
| 2026-05-06 00:45 | 23.76513 | 113.44873 | 10789 ft | 335 kts | 146° |
| 2026-05-06 00:46 | 23.74654 | 113.46328 | 10786 ft | 320 kts | 146° |
| 2026-05-06 00:46 | 23.72884 | 113.47713 | 10734 ft | 309 kts | 146° |
| 2026-05-06 00:46 | 23.71147 | 113.49070 | 10515 ft | 307 kts | 146° |
| 2026-05-06 00:46 | 23.69396 | 113.50436 | 10278 ft | 305 kts | 146° |
| 2026-05-06 00:47 | 23.67697 | 113.51762 | 10046 ft | 303 kts | 146° |
| 2026-05-06 00:47 | 23.65964 | 113.53095 | 9804 ft | 301 kts | 149° |
| 2026-05-06 00:47 | 23.64133 | 113.54202 | 9564 ft | 298 kts | 158° |
| 2026-05-06 00:47 | 23.62208 | 113.54999 | 9328 ft | 295 kts | 166° |
| 2026-05-06 00:48 | 23.60212 | 113.55488 | 9087 ft | 291 kts | 174° |
| 2026-05-06 00:48 | 23.58208 | 113.55663 | 8912 ft | 285 kts | 182° |
| 2026-05-06 00:48 | 23.56238 | 113.55531 | 8895 ft | 285 kts | 190° |
| 2026-05-06 00:48 | 23.54273 | 113.55099 | 8891 ft | 284 kts | 198° |
| 2026-05-06 00:49 | 23.52408 | 113.54388 | 8891 ft | 282 kts | 205° |
| 2026-05-06 00:49 | 23.50684 | 113.53435 | 8886 ft | 275 kts | 212° |
| 2026-05-06 00:49 | 23.49019 | 113.52420 | 8892 ft | 273 kts | 211° |
| 2026-05-06 00:49 | 23.47370 | 113.51407 | 8892 ft | 271 kts | 212° |
| 2026-05-06 00:50 | 23.45718 | 113.50375 | 8894 ft | 270 kts | 212° |
| 2026-05-06 00:50 | 23.44108 | 113.49361 | 8896 ft | 269 kts | 212° |
| 2026-05-06 00:50 | 23.42476 | 113.48332 | 8895 ft | 269 kts | 212° |
| 2026-05-06 00:50 | 23.40843 | 113.47302 | 8895 ft | 269 kts | 212° |
| 2026-05-06 00:51 | 23.39220 | 113.46278 | 8894 ft | 270 kts | 212° |
| 2026-05-06 00:51 | 23.37584 | 113.45247 | 8894 ft | 269 kts | 212° |
| 2026-05-06 00:51 | 23.35973 | 113.44231 | 8889 ft | 269 kts | 212° |
| 2026-05-06 00:51 | 23.34338 | 113.43201 | 8888 ft | 270 kts | 212° |
| 2026-05-06 00:52 | 23.32700 | 113.42170 | 8890 ft | 269 kts | 212° |
| 2026-05-06 00:52 | 23.31074 | 113.41145 | 8889 ft | 269 kts | 212° |
| 2026-05-06 00:52 | 23.29346 | 113.40355 | 8895 ft | 272 kts | 198° |
| 2026-05-06 00:52 | 23.27522 | 113.39832 | 8889 ft | 272 kts | 196° |
| 2026-05-06 00:53 | 23.25654 | 113.39331 | 8886 ft | 272 kts | 196° |
| 2026-05-06 00:53 | 23.23814 | 113.38837 | 8882 ft | 272 kts | 196° |
| 2026-05-06 00:53 | 23.21978 | 113.38341 | 8878 ft | 272 kts | 196° |
| 2026-05-06 00:53 | 23.20121 | 113.37839 | 8873 ft | 272 kts | 196° |
| 2026-05-06 00:54 | 23.18269 | 113.37339 | 8452 ft | 277 kts | 196° |
| 2026-05-06 00:54 | 23.16382 | 113.36828 | 7869 ft | 286 kts | 195° |
| 2026-05-06 00:54 | 23.14457 | 113.36308 | 7633 ft | 280 kts | 195° |
| 2026-05-06 00:54 | 23.12581 | 113.35802 | 7316 ft | 278 kts | 195° |
| 2026-05-06 00:55 | 23.10817 | 113.34983 | 6820 ft | 271 kts | 218° |
| 2026-05-06 00:55 | 23.09612 | 113.33459 | 6309 ft | 267 kts | 244° |
| 2026-05-06 00:55 | 23.09097 | 113.31541 | 5801 ft | 266 kts | 261° |
| 2026-05-06 00:55 | 23.08937 | 113.29559 | 5298 ft | 265 kts | 265° |
| 2026-05-06 00:56 | 23.09041 | 113.27560 | 4898 ft | 261 kts | 285° |
| 2026-05-06 00:56 | 23.09926 | 113.25914 | 4864 ft | 250 kts | 314° |
| 2026-05-06 00:56 | 23.11331 | 113.24916 | 4859 ft | 237 kts | 336° |
| 2026-05-06 00:56 | 23.12909 | 113.24656 | 4738 ft | 229 kts | 2° |
| 2026-05-06 00:57 | 23.14492 | 113.24863 | 4456 ft | 226 kts | 9° |
| 2026-05-06 00:57 | 23.16017 | 113.25182 | 4175 ft | 221 kts | 12° |
| 2026-05-06 00:57 | 23.17506 | 113.25544 | 3897 ft | 216 kts | 14° |
| 2026-05-06 00:57 | 23.18967 | 113.25925 | 3625 ft | 211 kts | 15° |
| 2026-05-06 00:58 | 23.20384 | 113.26308 | 3356 ft | 206 kts | 15° |
| 2026-05-06 00:58 | 23.21711 | 113.26671 | 3099 ft | 190 kts | 15° |
| 2026-05-06 00:58 | 23.22957 | 113.27012 | 2860 ft | 179 kts | 16° |
| 2026-05-06 00:58 | 23.24148 | 113.27334 | 2629 ft | 170 kts | 16° |
| 2026-05-06 00:59 | 23.25261 | 113.27634 | 2414 ft | 160 kts | 16° |
| 2026-05-06 00:59 | 23.26310 | 113.27916 | 2209 ft | 150 kts | 16° |
| 2026-05-06 00:59 | 23.27318 | 113.28188 | 2011 ft | 149 kts | 16° |
| 2026-05-06 00:59 | 23.28332 | 113.28460 | 1808 ft | 148 kts | 16° |
| 2026-05-06 01:00 | 23.29335 | 113.28728 | 1604 ft | 147 kts | 16° |
| 2026-05-06 01:00 | 23.30326 | 113.28995 | 1404 ft | 146 kts | 16° |
| 2026-05-06 01:00 | 23.31327 | 113.29264 | 1203 ft | 145 kts | 16° |
| 2026-05-06 01:00 | 23.32300 | 113.29525 | 1006 ft | 143 kts | 16° |
| 2026-05-06 01:01 | 23.33257 | 113.29782 | 814 ft | 140 kts | 16° |
| 2026-05-06 01:01 | 23.34202 | 113.30036 | 630 ft | 139 kts | 16° |
| 2026-05-06 01:01 | 23.35144 | 113.30290 | 444 ft | 138 kts | 16° |
| 2026-05-06 01:01 | 23.36081 | 113.30533 | 259 ft | 138 kts | 15° |
| 2026-05-06 01:02 | 23.37024 | 113.30776 | 82 ft | 137 kts | 16° |
| 2026-05-06 01:02 | 23.37857 | 113.31013 | 60 ft | 101 kts | 14° |
| 2026-05-06 01:02 | 23.38361 | 113.31151 | 60 ft | 48 kts | 14° |
| 2026-05-06 01:02 | 23.38670 | 113.31235 | 60 ft | 42 kts | 13° |
| 2026-05-06 01:03 | 23.38870 | 113.31287 | 60 ft | 19 kts | 8° |
| 2026-05-06 01:03 | 23.39002 | 113.31293 | 60 ft | 18 kts | 354° |
| 2026-05-06 01:03 | 23.39126 | 113.31270 | 60 ft | 17 kts | 346° |
| 2026-05-06 01:03 | 23.39243 | 113.31238 | 60 ft | 16 kts | 346° |
| 2026-05-06 01:04 | 23.39354 | 113.31218 | 60 ft | 15 kts | 0° |
| 2026-05-06 01:04 | 23.39443 | 113.31240 | 60 ft | 15 kts | 15° |
| 2026-05-06 01:04 | 23.39548 | 113.31269 | 60 ft | 16 kts | 14° |
| 2026-05-06 01:04 | 23.39658 | 113.31299 | 60 ft | 16 kts | 14° |
| 2026-05-06 01:05 | 23.39765 | 113.31328 | 60 ft | 15 kts | 14° |
| 2026-05-06 01:05 | 23.39866 | 113.31355 | 60 ft | 14 kts | 14° |
| 2026-05-06 01:05 | 23.39963 | 113.31381 | 60 ft | 14 kts | 14° |
| 2026-05-06 01:05 | 23.40057 | 113.31406 | 60 ft | 13 kts | 14° |
| 2026-05-06 01:06 | 23.40147 | 113.31431 | 60 ft | 13 kts | 14° |
| 2026-05-06 01:06 | 23.40234 | 113.31454 | 60 ft | 12 kts | 13° |
| 2026-05-06 01:06 | 23.40312 | 113.31448 | 60 ft | 11 kts | 308° |
| 2026-05-06 01:06 | 23.40339 | 113.31366 | 60 ft | 11 kts | 284° |
| 2026-05-06 01:07 | 23.40359 | 113.31280 | 60 ft | 11 kts | 284° |
| 2026-05-06 01:07 | 23.40379 | 113.31194 | 60 ft | 11 kts | 284° |
| 2026-05-06 01:07 | 23.40399 | 113.31108 | 60 ft | 11 kts | 284° |
| 2026-05-06 01:07 | 23.40419 | 113.31023 | 60 ft | 11 kts | 284° |
| 2026-05-06 01:08 | 23.40438 | 113.30938 | 60 ft | 11 kts | 284° |
| 2026-05-06 01:08 | 23.40458 | 113.30853 | 60 ft | 11 kts | 284° |
| 2026-05-06 01:08 | 23.40477 | 113.30769 | 60 ft | 11 kts | 284° |
| 2026-05-06 01:08 | 23.40496 | 113.30685 | 60 ft | 11 kts | 284° |
| 2026-05-06 01:09 | 23.40516 | 113.30600 | 60 ft | 11 kts | 284° |
| 2026-05-06 01:09 | 23.40528 | 113.30517 | 60 ft | 10 kts | 254° |
| 2026-05-06 01:09 | 23.40477 | 113.30481 | 60 ft | 8 kts | 196° |
| 2026-05-06 01:09 | 23.40427 | 113.30445 | 60 ft | 8 kts | 226° |
| 2026-05-06 01:10 | 23.40384 | 113.30396 | 60 ft | 9 kts | 227° |
| 2026-05-06 01:10 | 23.40343 | 113.30347 | 60 ft | 6 kts | 227° |
| 2026-05-06 01:10 | 23.40315 | 113.30318 | 60 ft | 5 kts | 214° |
| 2026-05-06 01:10 | 23.40279 | 113.30311 | 60 ft | 5 kts | 170° |
| 2026-05-06 01:11 | 23.40240 | 113.30327 | 60 ft | 6 kts | 154° |
| 2026-05-06 01:11 | 23.40211 | 113.30343 | 60 ft | 4 kts | 153° |
| 2026-05-06 01:11 | 23.40180 | 113.30360 | 60 ft | 5 kts | 153° |
| 2026-05-06 01:11 | 23.40164 | 113.30368 | 60 ft | 0 kts | 153° |
| 2026-05-06 01:12 | 23.40161 | 113.30370 | 60 ft | 0 kts | 153° |